createdAt,value
2024-05-09T00:32:06.640Z,13.50
2024-05-09T00:35:32.048Z,13.50
2024-05-09T00:38:57.475Z,13.50
2024-05-09T00:42:22.726Z,13.50
2024-05-09T00:45:48.660Z,13.50
2024-05-09T00:49:17.015Z,13.50
2024-05-09T00:52:43.459Z,13.50
2024-05-09T00:56:12.476Z,13.40
2024-05-09T00:59:38.428Z,13.40
2024-05-09T01:03:04.054Z,13.30
2024-05-09T01:06:32.076Z,13.30
2024-05-09T01:09:57.327Z,13.20
2024-05-09T01:13:22.560Z,13.20
2024-05-09T01:16:48.382Z,13.20
2024-05-09T01:20:20.098Z,13.10
2024-05-09T01:23:55.112Z,13.10
2024-05-09T01:27:20.823Z,13.10
2024-05-09T01:30:46.378Z,13.10
2024-05-09T01:34:11.987Z,13.00
2024-05-09T01:37:37.388Z,13.00
2024-05-09T01:41:05.265Z,13.00
2024-05-09T01:44:30.639Z,13.00
2024-05-09T01:47:56.135Z,12.90
2024-05-09T01:51:21.583Z,12.90
2024-05-09T01:54:46.832Z,12.80
2024-05-09T01:58:15.162Z,12.80
2024-05-09T02:01:56.353Z,12.80
2024-05-09T02:05:23.238Z,12.80
2024-05-09T02:08:49.121Z,12.80
2024-05-09T02:12:14.564Z,12.70
2024-05-09T02:15:42.810Z,12.70
2024-05-09T02:19:08.241Z,12.70
2024-05-09T02:22:33.719Z,12.70
2024-05-09T02:25:59.217Z,12.60
2024-05-09T02:29:24.499Z,12.60
2024-05-09T02:32:52.446Z,12.60
2024-05-09T02:36:17.758Z,12.60
2024-05-09T02:39:40.337Z,12.50
2024-05-09T02:43:06.034Z,12.50
2024-05-09T02:46:31.540Z,12.50
2024-05-09T02:49:56.830Z,12.40
2024-05-09T02:53:22.427Z,12.40
2024-05-09T02:56:47.687Z,12.40
2024-05-09T03:00:18.494Z,12.40
2024-05-09T03:03:50.424Z,12.30
2024-05-09T03:07:20.071Z,12.30
2024-05-09T03:10:45.593Z,12.30
2024-05-09T03:14:11.044Z,12.20
2024-05-09T03:17:36.649Z,12.20
2024-05-09T03:20:59.582Z,12.20
2024-05-09T03:24:27.464Z,12.20
2024-05-09T03:27:52.754Z,12.10
2024-05-09T03:31:18.429Z,12.10
2024-05-09T03:34:44.180Z,12.10
2024-05-09T03:38:09.705Z,12.10
2024-05-09T03:41:37.761Z,12.10
2024-05-09T03:45:03.147Z,12.20
2024-05-09T03:48:28.717Z,14.00
2024-05-09T03:51:54.045Z,12.20
2024-05-09T03:55:16.676Z,12.20
2024-05-09T03:58:44.684Z,12.20
2024-05-09T04:02:10.271Z,12.20
2024-05-09T04:05:35.830Z,12.20
2024-05-09T04:09:01.624Z,12.20
2024-05-09T04:12:27.612Z,12.20
2024-05-09T04:15:55.443Z,12.20
2024-05-09T04:19:18.387Z,12.20
2024-05-09T04:22:43.829Z,12.30
2024-05-09T04:26:10.435Z,12.30
2024-05-09T04:29:37.255Z,12.40
2024-05-09T04:33:05.781Z,12.40
2024-05-09T04:36:31.442Z,12.60
2024-05-09T04:39:57.592Z,12.80
2024-05-09T04:43:22.895Z,13.20
2024-05-09T04:46:46.956Z,13.40
2024-05-09T04:50:21.226Z,13.80
2024-05-09T04:53:54.609Z,14.20
2024-05-09T04:57:19.903Z,14.70
2024-05-09T05:00:45.333Z,15.20
2024-05-09T05:04:10.703Z,15.70
2024-05-09T05:07:38.702Z,16.20
2024-05-09T05:11:03.968Z,16.60
2024-05-09T05:14:26.636Z,17.00
2024-05-09T05:17:52.104Z,17.30
2024-05-09T05:21:17.833Z,17.70
2024-05-09T05:24:45.817Z,18.00
2024-05-09T05:28:11.623Z,18.40
2024-05-09T05:31:34.489Z,18.90
2024-05-09T05:34:59.733Z,19.40
2024-05-09T05:38:26.064Z,19.80
2024-05-09T05:41:55.756Z,20.60
2024-05-09T05:45:18.607Z,20.90
2024-05-09T05:48:44.100Z,21.30
2024-05-09T05:52:07.464Z,21.80
2024-05-09T05:55:32.665Z,22.30
2024-05-09T05:59:00.566Z,22.70
2024-05-09T06:02:23.393Z,23.20
2024-05-09T06:05:48.898Z,23.60
2024-05-09T06:09:14.266Z,24.00
2024-05-09T06:12:39.223Z,24.40
2024-05-09T06:16:08.000Z,24.80
2024-05-09T06:19:31.090Z,25.20
2024-05-09T06:22:56.384Z,25.70
2024-05-09T06:26:21.675Z,26.10
2024-05-09T06:29:46.939Z,26.50
2024-05-09T06:33:16.445Z,26.70
2024-05-09T06:36:39.873Z,27.00
2024-05-09T06:40:07.308Z,27.30
2024-05-09T06:43:30.231Z,27.60
2024-05-09T06:46:58.078Z,27.90
2024-05-09T06:50:35.445Z,28.30
2024-05-09T06:54:02.870Z,28.60
2024-05-09T06:57:29.812Z,28.80
2024-05-09T07:00:52.555Z,28.90
2024-05-09T07:04:18.046Z,29.00
2024-05-09T07:11:08.979Z,29.20
2024-05-09T07:14:36.011Z,29.60
2024-05-09T07:18:03.041Z,29.80
2024-05-09T07:21:28.535Z,30.00
2024-05-09T07:24:53.758Z,30.10
2024-05-09T07:28:20.828Z,30.30
2024-05-09T07:31:46.057Z,30.50
2024-05-09T07:35:11.555Z,30.70
2024-05-09T07:38:37.022Z,30.90
2024-05-09T07:45:45.002Z,31.20
2024-05-09T07:50:55.167Z,31.60
2024-05-09T07:53:36.094Z,31.80
2024-05-09T07:56:46.092Z,31.80
2024-05-09T08:00:17.256Z,31.90
2024-05-09T08:03:45.630Z,32.00
2024-05-09T08:07:11.255Z,32.20
2024-05-09T08:10:35.244Z,32.40
2024-05-09T08:14:00.568Z,32.50
2024-05-09T08:17:25.905Z,32.70
2024-05-09T08:20:51.829Z,32.90
2024-05-09T08:24:16.991Z,33.00
2024-05-09T08:27:41.139Z,33.10
2024-05-09T08:31:07.316Z,33.20
2024-05-09T08:34:32.855Z,33.30
2024-05-09T08:37:58.220Z,33.40
2024-05-09T08:41:23.592Z,33.50
2024-05-09T08:44:51.914Z,33.50
2024-05-09T08:48:18.948Z,33.50
2024-05-09T08:51:47.603Z,33.60
2024-05-09T08:55:13.631Z,33.80
2024-05-09T08:58:40.439Z,33.80
2024-05-09T09:02:06.025Z,33.90
2024-05-09T09:05:35.960Z,33.90
2024-05-09T09:09:03.373Z,33.90
2024-05-09T09:12:28.674Z,33.90
2024-05-09T09:15:57.775Z,33.80
2024-05-09T09:19:26.145Z,33.90
2024-05-09T09:22:51.431Z,33.90
2024-05-09T09:26:18.958Z,33.90
2024-05-09T09:29:45.144Z,33.80
2024-05-09T09:33:10.220Z,33.60
2024-05-09T09:36:38.859Z,33.40
2024-05-09T09:40:07.083Z,33.30
2024-05-09T09:43:33.292Z,33.40
2024-05-09T09:47:01.335Z,33.60
2024-05-09T09:50:33.275Z,33.70
2024-05-09T09:54:01.659Z,33.80
2024-05-09T09:57:26.275Z,33.80
2024-05-09T10:00:54.258Z,33.70
2024-05-09T10:04:21.202Z,33.20
2024-05-09T10:07:49.272Z,32.60
2024-05-09T10:11:14.715Z,32.10
2024-05-09T10:14:48.071Z,31.70
2024-05-09T10:18:16.343Z,31.40
2024-05-09T10:21:49.746Z,31.20
2024-05-09T10:25:14.801Z,31.20
2024-05-09T10:28:46.544Z,31.30
2024-05-09T10:32:12.036Z,31.30
2024-05-09T10:35:37.274Z,31.00
2024-05-09T10:39:03.069Z,30.60
2024-05-09T10:42:29.383Z,30.40
2024-05-09T10:45:52.662Z,30.40
2024-05-09T10:49:18.203Z,30.60
2024-05-09T10:52:46.087Z,30.90
2024-05-09T10:56:09.709Z,31.00
2024-05-09T10:59:42.461Z,31.10
2024-05-09T11:03:08.650Z,31.40
2024-05-09T11:06:36.055Z,31.50
2024-05-09T11:10:02.081Z,31.50
2024-05-09T11:13:31.856Z,31.20
2024-05-09T11:17:03.935Z,31.10
2024-05-09T11:20:37.498Z,31.10
2024-05-09T11:24:03.296Z,31.30
2024-05-09T11:27:28.597Z,31.60
2024-05-09T11:30:54.427Z,31.90
2024-05-09T11:34:17.148Z,31.90
2024-05-09T11:37:42.757Z,31.90
2024-05-09T11:41:06.153Z,31.60
2024-05-09T11:44:34.021Z,31.20
2024-05-09T11:47:59.484Z,30.70
2024-05-09T11:51:24.696Z,30.20
2024-05-09T11:54:49.940Z,29.70
2024-05-09T11:58:14.764Z,29.40
2024-05-09T12:01:42.941Z,29.10
2024-05-09T12:05:06.031Z,28.90
2024-05-09T12:08:32.156Z,28.70
2024-05-09T12:11:54.945Z,28.50
2024-05-09T12:15:20.091Z,28.30
2024-05-09T12:18:48.014Z,28.00
2024-05-09T12:22:13.392Z,27.80
2024-05-09T12:25:39.665Z,27.60
2024-05-09T12:29:02.647Z,27.60
2024-05-09T12:32:28.347Z,27.70
2024-05-09T12:35:53.943Z,27.80
2024-05-09T12:39:19.211Z,27.90
2024-05-09T12:42:41.972Z,27.70
2024-05-09T12:46:07.767Z,27.80
2024-05-09T12:49:33.213Z,28.00
2024-05-09T12:53:02.092Z,28.20
2024-05-09T12:56:28.212Z,28.20
2024-05-09T12:59:50.960Z,28.20
2024-05-09T13:03:16.394Z,28.10
2024-05-09T13:06:39.274Z,28.00
2024-05-09T13:10:13.907Z,27.80
2024-05-09T13:13:41.590Z,27.80
2024-05-09T13:17:07.841Z,27.90
2024-05-09T13:20:35.335Z,28.10
2024-05-09T13:24:01.329Z,28.20
2024-05-09T13:27:26.898Z,28.50
2024-05-09T13:30:52.128Z,28.80
2024-05-09T13:34:17.493Z,29.10
2024-05-09T13:37:43.136Z,29.30
2024-05-09T13:41:08.513Z,29.40
2024-05-09T13:44:36.384Z,29.40
2024-05-09T13:47:59.421Z,29.30
2024-05-09T13:51:24.836Z,29.00
2024-05-09T13:54:47.902Z,28.70
2024-05-09T13:58:13.323Z,28.50
2024-05-09T14:01:41.434Z,28.20
2024-05-09T14:05:07.452Z,27.90
2024-05-09T14:08:33.004Z,27.70
2024-05-09T14:11:58.318Z,27.50
2024-05-09T14:15:21.200Z,27.30
2024-05-09T14:18:49.202Z,27.20
2024-05-09T14:22:12.070Z,27.20
2024-05-09T14:25:41.996Z,27.20
2024-05-09T14:29:08.875Z,27.10
2024-05-09T14:32:31.711Z,27.00
2024-05-09T14:36:02.071Z,26.90
2024-05-09T14:39:27.395Z,26.70
2024-05-09T14:42:52.694Z,26.60
2024-05-09T14:46:15.665Z,26.30
2024-05-09T14:49:41.124Z,26.10
2024-05-09T14:53:07.537Z,25.90
2024-05-09T14:56:33.408Z,25.80
2024-05-09T14:59:56.132Z,25.80
2024-05-09T15:03:22.368Z,25.70
2024-05-09T15:06:48.629Z,25.70
2024-05-09T15:10:26.529Z,26.10
2024-05-09T15:14:00.061Z,25.60
2024-05-09T15:17:23.143Z,25.60
2024-05-09T15:20:48.918Z,25.40
2024-05-09T15:24:14.432Z,25.30
2024-05-09T15:27:42.559Z,25.10
2024-05-09T15:31:08.031Z,24.90
2024-05-09T15:34:33.489Z,24.70
2024-05-09T15:37:56.751Z,24.60
2024-05-09T15:41:22.041Z,24.50
2024-05-09T15:44:52.951Z,24.40
2024-05-09T15:48:15.821Z,24.30
2024-05-09T15:51:41.243Z,24.30
2024-05-09T15:55:04.502Z,24.30
2024-05-09T15:58:30.944Z,24.30
2024-05-09T16:01:59.110Z,24.30
2024-05-09T16:05:24.620Z,24.30
2024-05-09T16:08:49.936Z,24.30
2024-05-09T16:12:12.712Z,24.20
2024-05-09T16:15:38.144Z,24.20
2024-05-09T16:19:03.652Z,24.10
2024-05-09T16:22:29.012Z,24.10
2024-05-09T16:25:52.037Z,24.30
2024-05-09T16:29:17.682Z,24.00
2024-05-09T16:32:44.050Z,24.00
2024-05-09T16:36:12.544Z,23.90
2024-05-09T16:39:37.954Z,23.90
2024-05-09T16:43:03.656Z,23.90
2024-05-09T16:46:29.194Z,23.80
2024-05-09T16:49:51.909Z,23.70
2024-05-09T16:53:20.408Z,23.70
2024-05-09T16:56:45.814Z,23.60
2024-05-09T17:00:18.317Z,23.60
2024-05-09T17:03:50.288Z,23.60
2024-05-09T17:07:16.075Z,23.50
2024-05-09T17:10:44.107Z,22.50
2024-05-09T17:14:09.544Z,23.30
2024-05-09T17:17:34.988Z,23.30
2024-05-09T17:21:00.323Z,23.30
2024-05-09T17:24:25.567Z,23.20
2024-05-09T17:27:51.075Z,23.20
2024-05-09T17:31:17.593Z,23.10
2024-05-09T17:34:43.031Z,23.10
2024-05-09T17:38:06.672Z,23.00
2024-05-09T17:41:32.118Z,23.00
2024-05-09T17:45:00.254Z,22.90
2024-05-09T17:48:25.857Z,22.90
2024-05-09T17:51:52.148Z,22.90
2024-05-09T17:55:17.921Z,22.80
2024-05-09T17:58:40.769Z,22.80
2024-05-09T18:02:09.103Z,22.70
2024-05-09T18:05:32.171Z,22.60
2024-05-09T18:08:57.583Z,22.60
2024-05-09T18:12:22.844Z,22.50
2024-05-09T18:15:48.225Z,22.50
2024-05-09T18:19:16.254Z,22.40
2024-05-09T18:22:41.702Z,22.30
2024-05-09T18:26:08.645Z,22.30
2024-05-09T18:29:31.427Z,22.20
2024-05-09T18:32:56.803Z,22.10
2024-05-09T18:36:22.701Z,22.00
2024-05-09T18:39:47.890Z,21.90
2024-05-09T18:43:13.310Z,21.90
2024-05-09T18:46:39.044Z,21.80
2024-05-09T18:50:08.879Z,21.70
2024-05-09T18:53:40.463Z,21.60
2024-05-09T18:57:04.816Z,21.50
2024-05-09T19:00:35.755Z,21.40
2024-05-09T19:04:04.180Z,21.30
2024-05-09T19:07:27.006Z,21.10
2024-05-09T19:10:55.012Z,21.00
2024-05-09T19:14:21.252Z,20.90
2024-05-09T19:17:46.528Z,20.70
2024-05-09T19:21:14.229Z,20.60
2024-05-09T19:24:39.461Z,20.60
2024-05-09T19:28:06.152Z,20.40
2024-05-09T19:31:31.461Z,20.30
2024-05-09T19:34:54.965Z,20.10
2024-05-09T19:38:20.425Z,20.00
2024-05-09T19:41:45.626Z,19.90
2024-05-09T19:45:11.229Z,19.80
2024-05-09T19:48:36.610Z,19.60
2024-05-09T19:51:59.342Z,19.60
2024-05-09T19:55:24.642Z,19.50
2024-05-09T19:58:49.924Z,19.40
2024-05-09T20:02:18.038Z,19.30
2024-05-09T20:05:46.291Z,19.20
2024-05-09T20:09:12.110Z,19.10
2024-05-09T20:12:35.128Z,19.00
2024-05-09T20:16:01.255Z,19.00
2024-05-09T20:19:26.658Z,18.90
2024-05-09T20:22:51.926Z,18.80
2024-05-09T20:26:14.567Z,18.70
2024-05-09T20:29:39.741Z,18.70
2024-05-09T20:33:05.273Z,18.60
2024-05-09T20:36:34.809Z,18.50
2024-05-09T20:39:57.732Z,18.40
2024-05-09T20:43:23.054Z,18.40
2024-05-09T20:46:45.980Z,18.50
2024-05-09T20:50:20.559Z,18.20
2024-05-09T20:53:56.742Z,18.20
2024-05-09T20:57:19.458Z,18.20
2024-05-09T21:00:46.440Z,18.10
2024-05-09T21:04:09.856Z,18.10
2024-05-09T21:07:35.431Z,18.10
2024-05-09T21:11:03.311Z,18.00
2024-05-09T21:14:26.022Z,18.00
2024-05-09T21:17:51.222Z,17.90
2024-05-09T21:21:13.967Z,17.90
2024-05-09T22:33:11.354Z,17.80
2024-05-09T22:36:37.500Z,16.90
2024-05-09T22:40:06.276Z,16.80
2024-05-09T22:43:29.522Z,16.70
2024-05-09T22:46:54.786Z,16.70
2024-05-09T22:50:26.248Z,16.60
2024-05-09T22:53:55.024Z,16.50
2024-05-09T22:57:20.296Z,16.40
2024-05-09T23:00:45.767Z,16.40
2024-05-09T23:04:09.498Z,16.30
2024-05-09T23:07:34.720Z,16.30
2024-05-09T23:11:02.641Z,16.30
2024-05-09T23:14:27.877Z,16.20
2024-05-09T23:17:50.776Z,16.10
2024-05-09T23:21:16.004Z,16.10
2024-05-09T23:24:39.616Z,16.00
2024-05-09T23:28:08.263Z,15.90
2024-05-09T23:31:31.057Z,15.90
2024-05-09T23:34:56.388Z,15.80
2024-05-09T23:38:23.748Z,15.50
2024-05-09T23:41:46.673Z,15.80
2024-05-09T23:45:14.585Z,15.70
2024-05-09T23:48:40.031Z,15.70
2024-05-09T23:52:05.405Z,15.60
2024-05-09T23:55:31.803Z,15.60
2024-05-09T23:58:54.798Z,15.50
